createdAt,value
2023-11-29T00:03:17.321Z,-3.25
2023-11-29T00:08:21.158Z,-3.28
2023-11-29T00:13:23.373Z,-3.30
2023-11-29T00:18:25.653Z,-3.32
2023-11-29T00:23:27.785Z,-3.35
2023-11-29T00:28:34.482Z,-3.36
2023-11-29T00:33:36.566Z,-3.37
2023-11-29T00:38:38.699Z,-3.40
2023-11-29T00:43:40.743Z,-3.43
2023-11-29T00:48:42.836Z,-3.44
2023-11-29T00:53:45.282Z,-3.46
2023-11-29T00:58:47.372Z,-3.49
2023-11-29T01:03:49.571Z,-3.54
2023-11-29T01:08:52.483Z,-3.60
2023-11-29T01:13:54.792Z,-3.66
2023-11-29T01:18:58.954Z,-3.71
2023-11-29T01:24:01.386Z,-3.74
2023-11-29T01:29:03.533Z,-3.74
2023-11-29T01:34:05.770Z,-3.70
2023-11-29T01:39:08.225Z,-3.67
2023-11-29T01:44:10.623Z,-3.63
2023-11-29T01:49:13.743Z,-3.63
2023-11-29T01:54:17.508Z,-3.63
2023-11-29T01:59:19.770Z,-3.65
2023-11-29T02:04:22.077Z,-3.70
2023-11-29T02:09:25.061Z,-3.73
2023-11-29T02:14:27.216Z,-3.75
2023-11-29T02:19:29.387Z,-3.79
2023-11-29T02:24:40.794Z,-3.82
2023-11-29T02:29:44.109Z,-3.89
2023-11-29T02:34:46.152Z,-3.94
2023-11-29T02:39:48.212Z,-3.99
2023-11-29T02:44:50.802Z,-4.02
2023-11-29T02:49:52.919Z,-4.01
2023-11-29T02:54:55.046Z,-4.00
2023-11-29T02:59:57.231Z,-3.99
2023-11-29T03:04:59.349Z,-4.02
2023-11-29T03:10:01.389Z,-4.03
2023-11-29T03:15:03.685Z,-4.07
2023-11-29T03:20:09.075Z,-4.11
2023-11-29T03:25:11.189Z,-4.14
2023-11-29T03:30:14.038Z,-4.16
2023-11-29T03:35:16.265Z,-4.20
2023-11-29T03:40:18.389Z,-4.22
2023-11-29T03:45:20.574Z,-4.23
2023-11-29T03:50:23.563Z,-4.21
2023-11-29T03:55:25.785Z,-4.21
2023-11-29T04:00:27.852Z,-4.21
2023-11-29T04:05:30.128Z,-4.18
2023-11-29T04:10:35.344Z,-4.18
2023-11-29T04:15:37.920Z,-4.18
2023-11-29T04:20:40.253Z,-4.17
2023-11-29T04:25:42.503Z,-4.16
2023-11-29T04:30:44.927Z,-4.17
2023-11-29T04:35:47.172Z,-4.17
2023-11-29T04:40:49.409Z,-4.17
2023-11-29T04:45:51.754Z,-4.16
2023-11-29T04:50:53.850Z,-4.15
2023-11-29T04:55:57.067Z,-4.14
2023-11-29T05:00:59.108Z,-4.15
2023-11-29T05:06:01.189Z,-4.18
2023-11-29T05:11:08.339Z,-4.21
2023-11-29T05:16:10.606Z,-4.24
2023-11-29T05:21:12.745Z,-4.27
2023-11-29T05:26:15.637Z,-4.25
2023-11-29T05:31:19.645Z,-4.26
2023-11-29T05:36:22.792Z,-4.27
2023-11-29T05:41:24.992Z,-4.22
2023-11-29T05:46:29.778Z,-4.19
2023-11-29T05:51:31.968Z,-4.19
2023-11-29T05:56:34.027Z,-4.18
2023-11-29T06:01:38.287Z,-4.16
2023-11-29T06:06:40.428Z,-4.15
2023-11-29T06:11:42.872Z,-4.17
2023-11-29T06:16:45.050Z,-4.22
2023-11-29T06:21:47.661Z,-4.27
2023-11-29T06:26:50.651Z,-4.28
2023-11-29T06:31:52.873Z,-4.28
2023-11-29T06:36:55.165Z,-4.29
2023-11-29T06:41:57.211Z,-4.27
2023-11-29T06:47:00.400Z,-4.24
2023-11-29T06:52:04.835Z,-4.21
2023-11-29T06:57:07.082Z,-4.21
2023-11-29T07:02:09.278Z,-4.18
2023-11-29T07:07:12.522Z,-4.09
2023-11-29T07:12:14.713Z,-3.99
2023-11-29T07:17:16.964Z,-3.92
2023-11-29T07:22:19.601Z,-3.85
2023-11-29T07:27:21.837Z,-3.76
2023-11-29T07:32:25.995Z,-3.71
2023-11-29T07:37:28.901Z,-3.68
2023-11-29T07:43:01.895Z,-3.60
2023-11-29T07:48:34.239Z,-3.54
2023-11-29T07:53:36.663Z,-3.50
2023-11-29T07:58:39.465Z,-3.43
2023-11-29T08:03:42.002Z,-3.38
2023-11-29T08:08:44.230Z,-3.38
2023-11-29T08:13:46.408Z,-3.26
2023-11-29T08:18:48.542Z,-3.17
2023-11-29T08:23:50.793Z,-3.10
2023-11-29T08:28:52.967Z,-3.01
2023-11-29T08:33:55.124Z,-2.90
2023-11-29T08:38:57.820Z,-2.85
2023-11-29T08:44:00.010Z,-2.80
2023-11-29T08:49:02.178Z,-2.75
2023-11-29T08:54:05.174Z,-2.67
2023-11-29T08:59:07.382Z,-2.64
2023-11-29T09:04:09.467Z,-2.63
2023-11-29T09:09:13.687Z,-2.64
2023-11-29T09:14:15.788Z,-2.67
2023-11-29T09:19:18.018Z,-2.57
2023-11-29T09:24:20.125Z,-2.55
2023-11-29T09:29:27.414Z,-2.58
2023-11-29T09:34:29.808Z,-2.59
2023-11-29T09:39:32.014Z,-2.59
2023-11-29T09:44:37.878Z,-2.52
2023-11-29T09:49:40.451Z,-2.39
2023-11-29T09:54:44.318Z,-2.37
2023-11-29T09:59:46.450Z,-2.37
2023-11-29T10:04:48.861Z,-2.19
2023-11-29T10:09:51.098Z,-2.06
2023-11-29T10:15:01.490Z,-1.93
2023-11-29T10:20:09.228Z,-1.93
2023-11-29T10:25:19.018Z,-1.96
2023-11-29T10:30:21.391Z,-1.91
2023-11-29T10:35:26.396Z,-1.73
2023-11-29T10:40:29.453Z,-1.52
2023-11-29T10:45:36.325Z,-1.33
2023-11-29T10:50:40.424Z,-1.21
2023-11-29T10:55:45.392Z,-1.15
2023-11-29T11:00:47.779Z,-1.00
2023-11-29T11:05:50.102Z,-0.59
2023-11-29T11:10:52.578Z,-0.39
2023-11-29T11:15:57.240Z,-0.32
2023-11-29T11:21:01.388Z,-0.23
2023-11-29T11:26:11.258Z,-0.31
2023-11-29T11:31:13.833Z,-0.50
2023-11-29T11:36:18.217Z,-0.63
2023-11-29T11:41:20.624Z,-0.60
2023-11-29T11:46:22.993Z,-0.51
2023-11-29T11:51:25.158Z,-0.44
2023-11-29T11:56:28.544Z,-0.34
2023-11-29T12:01:32.006Z,-0.33
2023-11-29T12:06:34.561Z,-0.30
2023-11-29T12:11:38.448Z,-0.28
2023-11-29T12:16:40.706Z,-0.30
2023-11-29T12:21:44.444Z,-0.33
2023-11-29T12:26:48.227Z,-0.39
2023-11-29T12:31:53.402Z,-0.39
2023-11-29T12:36:58.860Z,-0.34
2023-11-29T12:42:04.746Z,-0.35
2023-11-29T12:47:07.354Z,-0.40
2023-11-29T12:52:09.486Z,-0.42
2023-11-29T12:57:12.407Z,-0.48
2023-11-29T13:02:14.733Z,-0.51
2023-11-29T13:07:16.998Z,-0.57
2023-11-29T13:12:19.512Z,-0.65
2023-11-29T13:17:24.470Z,-0.79
2023-11-29T13:22:26.945Z,-0.92
2023-11-29T13:27:29.529Z,-0.94
2023-11-29T13:32:32.352Z,-1.06
2023-11-29T13:37:34.730Z,-1.13
2023-11-29T13:42:36.994Z,-1.26
2023-11-29T13:47:40.856Z,-1.34
2023-11-29T13:52:43.752Z,-1.43
2023-11-29T13:57:46.585Z,-1.53
2023-11-29T14:02:49.308Z,-1.63
2023-11-29T14:07:52.822Z,-1.72
2023-11-29T14:12:56.459Z,-1.81
2023-11-29T14:17:59.129Z,-1.89
2023-11-29T14:23:01.395Z,-1.98
2023-11-29T14:28:06.684Z,-2.07
2023-11-29T14:33:14.642Z,-2.18
2023-11-29T14:38:16.860Z,-2.30
2023-11-29T14:43:19.204Z,-2.42
2023-11-29T14:48:22.615Z,-2.52
2023-11-29T14:53:24.848Z,-2.60
2023-11-29T14:58:27.189Z,-2.68
2023-11-29T15:03:29.994Z,-2.75
2023-11-29T15:08:32.392Z,-2.80
2023-11-29T15:13:39.050Z,-2.90
2023-11-29T15:18:44.317Z,-2.98
2023-11-29T15:23:46.724Z,-3.07
2023-11-29T15:28:49.463Z,-3.16
2023-11-29T15:33:51.746Z,-3.26
2023-11-29T15:38:54.208Z,-3.35
2023-11-29T15:43:56.318Z,-3.44
2023-11-29T15:48:58.718Z,-3.50
2023-11-29T15:54:00.886Z,-3.56
2023-11-29T15:59:03.150Z,-3.64
2023-11-29T16:04:05.845Z,-3.73
2023-11-29T16:09:09.207Z,-3.82
2023-11-29T16:14:11.495Z,-3.90
2023-11-29T16:19:13.584Z,-3.95
2023-11-29T16:24:15.834Z,-4.00
2023-11-29T16:29:17.988Z,-4.06
2023-11-29T16:34:20.369Z,-4.12
2023-11-29T16:39:22.577Z,-4.16
2023-11-29T16:44:24.794Z,-4.18
2023-11-29T16:49:27.063Z,-4.23
2023-11-29T16:54:29.301Z,-4.30
2023-11-29T16:59:31.615Z,-4.35
2023-11-29T17:04:33.787Z,-4.39
2023-11-29T17:09:36.172Z,-4.43
2023-11-29T17:14:38.426Z,-4.46
2023-11-29T17:19:40.554Z,-4.48
2023-11-29T17:24:43.304Z,-4.52
2023-11-29T17:29:45.623Z,-4.56
2023-11-29T17:34:48.471Z,-4.55
2023-11-29T17:39:50.639Z,-4.52
2023-11-29T17:44:53.146Z,-4.49
2023-11-29T17:49:56.301Z,-4.44
2023-11-29T17:54:58.508Z,-4.40
2023-11-29T18:00:01.501Z,-4.35
2023-11-29T18:05:03.782Z,-4.30
2023-11-29T18:10:06.263Z,-4.28
2023-11-29T18:15:08.970Z,-4.30
2023-11-29T18:20:12.221Z,-4.29
2023-11-29T18:25:14.531Z,-4.27
2023-11-29T18:30:17.106Z,-4.28
2023-11-29T18:35:19.360Z,-4.29
2023-11-29T18:40:21.524Z,-4.30
2023-11-29T18:45:23.590Z,-4.28
2023-11-29T18:50:25.657Z,-4.28
2023-11-29T18:55:30.532Z,-4.23
2023-11-29T19:00:32.736Z,-4.16
2023-11-29T19:05:35.479Z,-4.11
2023-11-29T19:10:37.572Z,-4.08
2023-11-29T19:15:39.783Z,-4.04
2023-11-29T19:20:42.048Z,-4.04
2023-11-29T19:25:44.749Z,-4.05
2023-11-29T19:30:47.086Z,-4.07
2023-11-29T19:35:49.404Z,-4.10
2023-11-29T19:40:51.679Z,-4.13
2023-11-29T19:45:56.060Z,-4.11
2023-11-29T19:50:58.200Z,-4.09
2023-11-29T19:56:00.253Z,-4.08
2023-11-29T20:01:02.545Z,-4.07
2023-11-29T20:06:05.081Z,-4.07
2023-11-29T20:11:08.584Z,-4.12
2023-11-29T20:16:11.657Z,-4.18
2023-11-29T20:21:14.207Z,-4.23
2023-11-29T20:26:16.236Z,-4.25
2023-11-29T20:31:24.839Z,-4.25
2023-11-29T20:36:27.198Z,-4.22
2023-11-29T20:41:32.111Z,-4.20
2023-11-29T20:46:34.104Z,-4.13
2023-11-29T20:51:36.179Z,-3.94
2023-11-29T20:56:38.104Z,-3.79
2023-11-29T21:01:40.825Z,-3.69
2023-11-29T21:06:42.818Z,-3.62
2023-11-29T21:11:44.795Z,-3.51
2023-11-29T21:16:47.225Z,-3.41
2023-11-29T21:21:49.184Z,-3.35
2023-11-29T21:26:51.238Z,-3.28
2023-11-29T21:31:54.372Z,-3.25
2023-11-29T21:36:56.542Z,-3.26
2023-11-29T21:41:58.800Z,-3.28
2023-11-29T21:47:01.371Z,-3.27
2023-11-29T21:52:03.551Z,-3.26
2023-11-29T21:57:05.532Z,-3.23
2023-11-29T22:02:08.223Z,-3.19
2023-11-29T22:07:14.671Z,-3.16
2023-11-29T22:12:16.799Z,-3.12
2023-11-29T22:17:18.969Z,-3.06
2023-11-29T22:22:20.922Z,-2.97
2023-11-29T22:27:22.932Z,-2.87
2023-11-29T22:32:25.525Z,-2.77
2023-11-29T22:37:29.078Z,-2.70
2023-11-29T22:42:31.097Z,-2.60
2023-11-29T22:47:33.139Z,-2.52
2023-11-29T22:52:35.111Z,-2.45
2023-11-29T22:57:37.217Z,-2.39
2023-11-29T23:02:39.379Z,-2.33
2023-11-29T23:07:41.483Z,-2.29
2023-11-29T23:12:44.585Z,-2.27
2023-11-29T23:17:46.642Z,-2.24
2023-11-29T23:22:49.494Z,-2.20
2023-11-29T23:27:52.010Z,-2.14
2023-11-29T23:32:54.535Z,-2.06
2023-11-29T23:37:56.717Z,-1.97
2023-11-29T23:42:59.048Z,-1.88
2023-11-29T23:48:02.542Z,-1.81
2023-11-29T23:53:04.843Z,-1.75
2023-11-29T23:58:06.980Z,-1.67
